Time;durP1;ratioP1;P1;durP2;ratioP2;P2;SDS_P1;SDS_P2;PMS_P1;PMS_P2;Temp;Humidity;BMP_temperature;BMP_pressure;BME280_temperature;BME280_humidity;BME280_pressure;Samples;Min_cycle;Max_cycle;Signal;HPM_P1;HPM_P2
2023/01/24 00:04:30;;;;;;;141.68;53.72;;;;;;;0.56;100.00;101976.94;10458859;28;20454;-70
2023/01/24 00:09:32;;;;;;;141.93;53.35;;;;;;;0.32;100.00;101990.66;10458179;28;20037;-70
2023/01/24 00:14:34;;;;;;;142.38;53.53;;;;;;;0.42;100.00;101984.16;10458485;28;20419;-70
2023/01/24 00:19:35;;;;;;;138.30;51.95;;;;;;;0.53;100.00;101988.03;10459553;28;20482;-70
2023/01/24 00:24:37;;;;;;;147.20;53.78;;;;;;;0.44;100.00;101996.34;10457467;28;20115;-70
2023/01/24 00:29:39;;;;;;;143.43;53.38;;;;;;;0.45;100.00;101986.88;10458898;28;20037;-70
2023/01/24 00:34:40;;;;;;;153.73;54.25;;;;;;;0.47;100.00;101975.75;10465508;28;20048;-70
2023/01/24 00:39:42;;;;;;;153.40;57.17;;;;;;;0.27;100.00;101988.69;10464143;28;20108;-70
2023/01/24 00:44:46;;;;;;;155.70;56.05;;;;;;;0.43;100.00;101984.19;10463930;28;20099;-70
2023/01/24 00:49:49;;;;;;;160.82;56.22;;;;;;;0.39;100.00;102003.00;10464520;28;20156;-70
2023/01/24 00:54:51;;;;;;;145.00;56.00;;;;;;;0.46;100.00;102001.56;10463053;28;20119;-70
2023/01/24 00:59:52;;;;;;;150.68;57.55;;;;;;;0.29;100.00;102011.22;10463827;28;20508;-70
2023/01/24 01:04:54;;;;;;;147.40;54.80;;;;;;;0.46;100.00;102004.16;10464711;28;20053;-70
2023/01/24 01:09:56;;;;;;;145.52;55.53;;;;;;;0.55;100.00;102008.81;10462095;28;20056;-70
2023/01/24 01:14:57;;;;;;;147.65;56.20;;;;;;;0.44;100.00;102010.94;10463875;28;20520;-70
2023/01/24 01:19:59;;;;;;;142.73;53.25;;;;;;;0.42;100.00;102002.25;10463476;28;20071;-70
2023/01/24 01:25:01;;;;;;;138.60;52.95;;;;;;;0.60;100.00;101997.81;10463246;28;20037;-70
2023/01/24 01:30:03;;;;;;;142.48;53.38;;;;;;;0.43;100.00;102001.44;10462776;28;20482;-70
2023/01/24 01:35:05;;;;;;;142.52;54.08;;;;;;;0.31;100.00;102001.84;10462557;28;20059;-70
2023/01/24 01:40:07;;;;;;;163.95;56.28;;;;;;;0.18;100.00;101991.81;10460549;28;20068;-70
2023/01/24 01:45:28;;;;;;;160.65;57.10;;;;;;;0.36;100.00;101997.72;10461287;28;20498;-70
2023/01/24 01:50:40;;;;;;;167.40;57.75;;;;;;;0.20;100.00;101985.84;10459203;28;20570;-70
2023/01/24 01:55:49;;;;;;;161.25;57.55;;;;;;;0.43;100.00;101989.38;10460465;28;20418;-70
2023/01/24 02:00:51;;;;;;;147.50;55.30;;;;;;;0.51;100.00;101987.09;10459438;28;20052;-70
2023/01/24 02:05:53;;;;;;;154.07;54.60;;;;;;;0.45;100.00;101985.16;10461001;28;20414;-70
2023/01/24 02:16:19;;;;;;;142.30;55.47;;;;;;;0.39;100.00;101966.78;10461999;28;20065;-70
2023/01/24 02:21:21;;;;;;;140.90;53.30;;;;;;;0.49;100.00;101968.06;10459797;28;20409;-70
2023/01/24 02:26:25;;;;;;;145.30;54.70;;;;;;;0.36;100.00;101974.44;10459875;28;20037;-70
2023/01/24 02:31:27;;;;;;;148.35;56.15;;;;;;;0.21;100.00;101959.16;10458794;28;20136;-70
2023/01/24 02:36:34;;;;;;;153.23;55.00;;;;;;;0.23;100.00;101956.66;10458817;28;20505;-70
2023/01/24 02:41:44;;;;;;;140.75;54.28;;;;;;;0.30;100.00;101953.47;10461179;28;20383;-70
2023/01/24 02:46:46;;;;;;;146.85;55.55;;;;;;;0.41;100.00;101969.47;10458741;28;20063;-70
2023/01/24 03:02:29;;;;;;;159.40;54.15;;;;;;;0.14;100.00;101966.63;10458455;28;20053;-70
2023/01/24 03:07:41;;;;;;;160.63;55.28;;;;;;;0.06;100.00;101955.97;10459734;28;20051;-69
2023/01/24 03:44:51;;;;;;;151.60;53.10;;;;;;;0.27;100.00;101983.50;10458132;28;20094;-70
2023/01/24 03:55:13;;;;;;;145.82;51.08;;;;;;;0.23;100.00;101986.00;10455647;28;20049;-70
2023/01/24 04:00:16;;;;;;;131.13;48.58;;;;;;;0.27;100.00;101981.84;10455436;28;20095;-70
2023/01/24 04:05:26;;;;;;;134.02;47.80;;;;;;;0.17;100.00;101983.13;10460271;28;20040;-70
2023/01/24 04:10:29;;;;;;;130.40;48.60;;;;;;;0.17;100.00;101977.97;10465018;28;20094;-70
2023/01/24 04:15:32;;;;;;;147.27;49.58;;;;;;;0.11;100.00;101974.25;10463968;28;20068;-71
2023/01/24 04:21:00;;;;;;;145.00;51.42;;;;;;;0.23;100.00;101978.22;10465972;28;20052;-71
2023/01/24 04:26:03;;;;;;;138.43;49.33;;;;;;;0.14;100.00;101979.56;10463131;28;20106;-71
2023/01/24 04:31:06;;;;;;;142.82;51.05;;;;;;;0.10;100.00;101973.38;10464404;28;20136;-71
2023/01/24 04:36:34;;;;;;;166.60;54.60;;;;;;;0.01;100.00;101969.53;10464307;28;20045;-71
2023/01/24 04:41:37;;;;;;;160.68;52.95;;;;;;;-0.04;100.00;101969.31;10463895;28;20048;-71
2023/01/24 04:46:39;;;;;;;149.73;50.28;;;;;;;0.07;100.00;101964.59;10463179;28;20055;-71
2023/01/24 04:51:42;;;;;;;151.50;50.97;;;;;;;0.18;100.00;101971.09;10476473;22;20144;-75
2023/01/24 04:56:50;;;;;;;142.48;50.08;;;;;;;0.08;100.00;101980.16;10446099;28;20148;-75
2023/01/24 05:01:52;;;;;;;127.50;46.13;;;;;;;0.13;100.00;101981.22;10463114;28;20059;-75
2023/01/24 05:07:16;;;;;;;132.48;48.70;;;;;;;0.34;100.00;101988.13;10463811;28;20068;-74
2023/01/24 05:12:23;;;;;;;;;;;;;;;0.29;100.00;101984.47;10444956;28;20044;-75
2023/01/24 05:17:25;;;;;;;122.70;45.95;;;;;;;0.31;100.00;101985.41;10460992;28;20024;-75
2023/01/24 05:22:29;;;;;;;117.57;44.17;;;;;;;0.30;100.00;101984.53;10444229;28;20072;-74
2023/01/24 05:27:31;;;;;;;112.65;46.58;;;;;;;0.17;100.00;101984.84;10445600;28;20107;-75
2023/01/24 05:32:37;;;;;;;117.57;45.63;;;;;;;0.31;100.00;101999.25;10444543;28;20041;-74
2023/01/24 05:37:40;;;;;;;116.35;46.30;;;;;;;0.12;100.00;101996.69;10443853;28;20037;-74
2023/01/24 05:42:43;;;;;;;124.25;45.17;;;;;;;0.23;100.00;101991.16;10443022;28;20140;-75
2023/01/24 05:47:46;;;;;;;122.82;46.55;;;;;;;0.18;100.00;101992.69;10442671;28;20467;-74
2023/01/24 05:52:50;;;;;;;128.18;46.13;;;;;;;0.20;100.00;102001.38;10442555;28;20057;-74
2023/01/24 05:57:52;;;;;;;114.13;43.97;;;;;;;0.34;100.00;102008.81;10460902;28;20365;-74
2023/01/24 06:03:26;;;;;;;118.95;52.33;;;;;;;0.44;100.00;102017.03;10445283;28;20049;-75
2023/01/24 06:08:30;;;;;;;126.13;50.00;;;;;;;0.27;100.00;102012.88;10441620;28;20076;-74
2023/01/24 06:13:33;;;;;;;117.13;45.20;;;;;;;0.43;100.00;102022.13;10442105;28;20048;-74
2023/01/24 06:18:35;;;;;;;117.90;44.67;;;;;;;0.27;100.00;102032.66;10459429;28;20491;-75
2023/01/24 06:23:37;;;;;;;114.45;43.92;;;;;;;0.37;100.00;102030.53;10457539;28;20053;-74
2023/01/24 06:28:40;;;;;;;120.63;45.85;;;;;;;0.27;100.00;102038.72;10423586;28;20453;-74
2023/01/24 06:33:56;;;;;;;132.90;49.53;;;;;;;0.27;100.00;102038.72;10456536;28;20068;-74
2023/01/24 06:38:58;;;;;;;115.43;45.15;;;;;;;0.35;100.00;102037.31;10400533;28;20045;-74
2023/01/24 06:44:00;;;;;;;119.82;44.83;;;;;;;0.43;100.00;102043.72;10418834;28;20509;-74
2023/01/24 06:49:02;;;;;;;105.80;44.47;;;;;;;0.48;100.00;102041.31;10415789;28;20045;-74
2023/01/24 06:54:04;;;;;;;110.18;44.08;;;;;;;0.33;100.00;102045.88;10416578;28;20045;-74
2023/01/24 06:59:05;;;;;;;105.55;41.33;;;;;;;0.65;100.00;102036.84;10415080;28;20486;-74
2023/01/24 07:04:07;;;;;;;96.93;41.15;;;;;;;0.63;100.00;102038.50;10416610;28;20045;-74
2023/01/24 07:09:09;;;;;;;106.78;43.45;;;;;;;0.62;100.00;102037.59;10416630;28;20041;-74
2023/01/24 07:14:11;;;;;;;99.10;41.45;;;;;;;0.56;100.00;102037.34;10416256;28;20041;-74
2023/01/24 07:19:18;;;;;;;107.20;42.95;;;;;;;0.54;100.00;102051.06;10416271;28;20113;-75
2023/01/24 07:24:22;;;;;;;101.90;40.60;;;;;;;0.50;100.00;102048.34;10398136;28;20526;-75
2023/01/24 07:29:24;;;;;;;103.40;42.10;;;;;;;0.48;100.00;102044.78;10398619;28;20411;-75
2023/01/24 07:34:26;;;;;;;104.82;41.38;;;;;;;0.68;100.00;102052.50;10398529;28;20061;-74
2023/01/24 07:39:28;;;;;;;110.18;42.65;;;;;;;0.57;100.00;102046.88;10398247;28;20042;-75
2023/01/24 07:44:31;;;;;;;104.80;40.63;;;;;;;0.54;100.00;102051.94;10416465;28;20045;-75
2023/01/24 07:49:33;;;;;;;98.30;39.10;;;;;;;0.41;100.00;102050.53;10417644;28;20502;-75
2023/01/24 07:54:35;;;;;;;104.88;41.10;;;;;;;0.55;100.00;102063.16;10414732;28;20049;-75
2023/01/24 07:59:37;;;;;;;110.28;42.78;;;;;;;0.54;100.00;102069.16;10415376;28;20499;-74
2023/01/24 08:04:40;;;;;;;105.18;41.53;;;;;;;0.56;100.00;102070.97;10415281;28;20052;-75
2023/01/24 08:09:41;;;;;;;107.00;42.70;;;;;;;0.75;100.00;102078.69;10397687;28;20042;-75
2023/01/24 08:14:43;;;;;;;94.05;39.40;;;;;;;0.83;100.00;102086.75;10415142;28;20095;-74
2023/01/24 08:19:45;;;;;;;105.80;43.35;;;;;;;0.73;100.00;102087.22;10415431;28;20033;-74
2023/01/24 08:24:57;;;;;;;96.85;39.47;;;;;;;0.65;100.00;102094.66;10415982;28;20132;-74
2023/01/24 08:29:59;;;;;;;93.68;38.45;;;;;;;0.87;100.00;102100.72;10398337;28;20152;-74
2023/01/24 08:35:01;;;;;;;91.10;39.80;;;;;;;0.90;100.00;102100.84;10415999;28;20052;-75
2023/01/24 08:40:04;;;;;;;108.18;41.63;;;;;;;0.70;100.00;102105.19;10397761;28;20045;-74
2023/01/24 08:45:06;;;;;;;91.93;39.13;;;;;;;0.71;100.00;102110.47;10414436;28;20045;-74
2023/01/24 08:50:09;;;;;;;100.88;39.22;;;;;;;0.68;100.00;102114.63;10413391;28;20037;-74
2023/01/24 08:55:12;;;;;;;101.68;40.13;;;;;;;0.86;100.00;102115.38;10421591;28;20191;-74
2023/01/24 09:00:15;;;;;;;86.75;37.83;;;;;;;0.92;100.00;102115.59;10420383;28;20046;-75
2023/01/24 09:05:16;;;;;;;102.80;41.10;;;;;;;0.92;100.00;102110.44;10422825;28;20049;-75
2023/01/24 09:10:19;;;;;;;103.28;40.95;;;;;;;0.78;100.00;102109.00;10403807;28;20052;-75
2023/01/24 09:15:21;;;;;;;100.68;40.03;;;;;;;0.86;100.00;102114.50;10404279;28;20053;-74
2023/01/24 09:20:23;;;;;;;109.55;42.53;;;;;;;0.66;100.00;102108.47;10422199;28;20044;-75
2023/01/24 09:25:25;;;;;;;114.28;43.10;;;;;;;0.62;100.00;102103.97;10421084;28;20045;-74
2023/01/24 09:30:27;;;;;;;117.82;43.58;;;;;;;0.62;100.00;102110.06;10422344;28;20041;-74
2023/01/24 09:35:29;;;;;;;116.10;43.13;;;;;;;0.68;100.00;102110.31;10403609;28;20507;-74
2023/01/24 09:40:50;;;;;;;115.88;43.88;;;;;;;0.86;100.00;102115.38;10420540;28;20125;-74
2023/01/24 09:46:04;;;;;;;110.78;43.85;;;;;;;0.97;100.00;102108.94;10420503;28;20076;-75
2023/01/24 09:51:15;;;;;;;103.95;41.15;;;;;;;0.71;100.00;102110.47;10419545;28;20200;-74
2023/01/24 09:56:39;;;;;;;116.28;42.42;;;;;;;0.82;100.00;102104.81;10401395;28;20049;-74
2023/01/24 10:01:40;;;;;;;110.72;43.95;;;;;;;1.00;100.00;102108.16;10418752;28;20051;-74
2023/01/24 10:07:12;;;;;;;127.90;47.67;;;;;;;0.85;100.00;102103.25;10401185;28;20439;-74
2023/01/24 10:12:40;;;;;;;129.30;46.35;;;;;;;0.86;100.00;102105.00;10412928;28;20064;-74
2023/01/24 10:18:03;;;;;;;110.05;43.50;;;;;;;0.96;100.00;102098.50;10415923;28;20380;-74
2023/01/24 10:23:10;;;;;;;116.57;43.88;;;;;;;1.04;100.00;102094.50;10420043;28;20041;-75
2023/01/24 10:28:38;;;;;;;122.72;42.40;;;;;;;0.88;100.00;102090.41;10417520;28;20034;-74
2023/01/24 10:33:49;;;;;;;112.72;44.75;;;;;;;0.97;100.00;102088.22;10410051;28;20103;-75
2023/01/24 10:38:50;;;;;;;120.75;45.45;;;;;;;1.02;100.00;102088.41;10418231;28;20406;-75
2023/01/24 10:44:04;;;;;;;122.70;44.33;;;;;;;1.03;100.00;102084.97;10417712;28;20095;-74
2023/01/24 10:49:15;;;;;;;106.07;43.17;;;;;;;1.07;100.00;102088.59;10417245;28;20454;-74
2023/01/24 10:54:22;;;;;;;112.85;44.47;;;;;;;0.88;100.00;102087.81;10417261;28;20049;-75
2023/01/24 10:59:24;;;;;;;104.07;42.03;;;;;;;0.99;100.00;102075.31;10400873;28;20052;-73
2023/01/24 11:04:29;;;;;;;111.15;41.45;;;;;;;0.95;100.00;102076.91;10416906;28;20056;-75
2023/01/24 11:09:34;;;;;;;109.45;41.17;;;;;;;1.05;100.00;102077.25;10416725;28;20067;-74
2023/01/24 11:14:36;;;;;;;113.88;44.03;;;;;;;1.00;100.00;102071.91;10416405;28;20472;-74
2023/01/24 11:19:39;;;;;;;116.28;42.03;;;;;;;1.08;100.00;102074.81;10399311;28;20128;-74
2023/01/24 11:24:45;;;;;;;115.28;44.25;;;;;;;0.96;100.00;102076.06;10416212;28;20053;-75
2023/01/24 11:30:07;;;;;;;117.72;45.20;;;;;;;1.15;100.00;102072.53;10416483;28;20047;-74
2023/01/24 11:35:24;;;;;;;109.68;42.55;;;;;;;1.21;100.00;102064.97;10415564;28;20502;-74
2023/01/24 11:40:34;;;;;;;;;;;;;;;1.10;100.00;102065.38;10399181;28;20096;-73
2023/01/24 11:45:41;;;;;;;114.63;45.13;;;;;;;1.11;100.00;102062.88;10415152;28;20003;-76
2023/01/24 11:50:55;;;;;;;112.60;45.50;;;;;;;1.06;100.00;102055.72;10417243;28;20033;-73
2023/01/24 11:56:40;;;;;;;119.93;44.92;;;;;;;1.14;100.00;102049.13;10417143;28;20042;-75
2023/01/24 12:01:54;;;;;;;124.32;48.58;;;;;;;1.22;100.00;102056.38;10397829;28;20041;-73
2023/01/24 12:07:06;;;;;;;131.10;47.15;;;;;;;1.04;100.00;102050.50;10416342;28;20073;-75
2023/01/24 12:12:07;;;;;;;126.97;48.83;;;;;;;1.10;100.00;102039.47;10415443;28;20076;-74
2023/01/24 12:17:24;;;;;;;135.27;51.92;;;;;;;1.30;100.00;102042.84;10398136;28;20492;-73
2023/01/24 12:22:32;;;;;;;131.30;48.95;;;;;;;1.26;100.00;102044.44;10398436;28;20136;-74
2023/01/24 12:27:36;;;;;;;145.73;54.17;;;;;;;0.94;100.00;102056.13;10419804;28;20038;-74
2023/01/24 12:32:47;;;;;;;118.82;44.35;;;;;;;1.27;100.00;102051.38;10422822;28;20510;-75
2023/01/24 12:37:57;;;;;;;114.30;44.30;;;;;;;1.30;100.00;102051.50;10423500;28;20065;-75
2023/01/24 12:43:18;;;;;;;114.80;44.97;;;;;;;1.35;100.00;102042.19;10406958;28;20048;-74
2023/01/24 12:48:33;;;;;;;108.20;42.80;;;;;;;1.38;100.00;102044.03;10423085;28;20037;-75
2023/01/24 12:53:52;;;;;;;116.05;44.20;;;;;;;1.29;100.00;102046.28;10404219;28;20058;-73
2023/01/24 12:58:55;;;;;;;110.90;44.78;;;;;;;1.30;100.00;102046.31;10404373;28;20041;-74
2023/01/24 13:04:19;;;;;;;110.82;43.65;;;;;;;1.24;100.00;102046.97;10405194;28;20037;-74
2023/01/24 13:09:21;;;;;;;106.97;42.22;;;;;;;1.26;100.00;102044.44;10421677;28;20041;-74
2023/01/24 13:14:38;;;;;;;115.00;45.17;;;;;;;1.30;100.00;102043.72;10421682;28;20065;-75
2023/01/24 13:20:01;;;;;;;110.47;43.20;;;;;;;1.28;100.00;102042.75;10421155;28;20070;-74
2023/01/24 13:25:02;;;;;;;105.45;44.17;;;;;;;1.28;100.00;102042.75;10397135;28;20037;-74
2023/01/24 13:30:41;;;;;;;111.57;43.42;;;;;;;1.37;100.00;102040.53;10420083;28;20410;-75
2023/01/24 13:35:48;;;;;;;102.93;41.22;;;;;;;1.26;100.00;102034.94;10419196;28;20091;-74
2023/01/24 13:40:58;;;;;;;;;;;;;;;1.49;100.00;102038.41;10420479;28;20168;-74
2023/01/24 13:46:00;;;;;;;121.22;47.75;;;;;;;1.42;100.00;102040.72;10418719;28;19937;-74
2023/01/24 13:51:21;;;;;;;120.68;47.33;;;;;;;1.20;100.00;102046.78;10418432;28;20045;-74
2023/01/24 13:56:23;;;;;;;126.60;46.13;;;;;;;1.31;100.00;102049.78;10417246;28;20060;-75
2023/01/24 14:01:26;;;;;;;131.43;48.35;;;;;;;1.25;100.00;102027.13;10400831;28;20044;-75
2023/01/24 14:06:41;;;;;;;125.88;45.65;;;;;;;1.17;100.00;102026.81;10417260;28;20048;-76
2023/01/24 14:11:58;;;;;;;122.22;46.95;;;;;;;1.18;100.00;102031.19;10419136;28;20502;-74
2023/01/24 14:17:03;;;;;;;135.15;49.47;;;;;;;1.03;100.00;102029.72;10417491;28;20049;-76
2023/01/24 14:22:11;;;;;;;131.15;49.65;;;;;;;1.10;100.00;102032.59;10418304;28;20042;-75
2023/01/24 14:27:31;;;;;;;114.90;46.55;;;;;;;1.15;100.00;102038.84;10397947;28;20486;-74
2023/01/24 14:32:39;;;;;;;127.15;48.65;;;;;;;1.08;100.00;102048.91;10397417;28;20052;-75
2023/01/24 14:37:41;;;;;;;122.07;47.03;;;;;;;1.04;100.00;102054.78;10413411;28;20049;-75
2023/01/24 14:42:43;;;;;;;122.45;45.83;;;;;;;0.97;100.00;102061.41;10398183;28;20388;-73
2023/01/24 14:47:47;;;;;;;119.93;45.60;;;;;;;1.03;100.00;102059.09;10415768;28;20487;-75
2023/01/24 14:52:50;;;;;;;127.70;48.53;;;;;;;1.00;100.00;102056.38;10397278;28;20045;-74
2023/01/24 14:57:55;;;;;;;131.60;47.58;;;;;;;0.90;100.00;102056.84;10415226;28;20079;-74
2023/01/24 15:03:05;;;;;;;128.55;47.70;;;;;;;0.82;100.00;102056.53;10399715;28;20050;-74
2023/01/24 15:08:16;;;;;;;128.75;45.95;;;;;;;0.90;100.00;102049.94;10399678;28;20048;-74
2023/01/24 15:13:24;;;;;;;126.03;47.17;;;;;;;0.81;100.00;102059.94;10417266;28;20049;-75
2023/01/24 15:18:29;;;;;;;132.07;47.15;;;;;;;0.73;100.00;102059.63;10415646;28;20053;-74
2023/01/24 15:23:32;;;;;;;136.70;46.78;;;;;;;0.86;100.00;102062.72;10415838;28;20566;-73
2023/01/24 15:28:33;;;;;;;136.88;47.35;;;;;;;0.86;100.00;102061.00;10414580;28;20041;-73
2023/01/24 15:33:40;;;;;;;127.88;47.08;;;;;;;0.89;100.00;102058.53;10395716;28;20058;-74
2023/01/24 15:38:52;;;;;;;133.38;48.17;;;;;;;0.92;100.00;102069.00;10414628;28;20121;-74
2023/01/24 15:44:05;;;;;;;125.40;47.75;;;;;;;0.91;100.00;102053.41;10415196;28;20491;-73
2023/01/24 15:49:26;;;;;;;129.73;47.28;;;;;;;0.72;100.00;102059.56;10415451;28;20371;-75
2023/01/24 15:54:38;;;;;;;135.00;47.35;;;;;;;0.71;100.00;102062.97;10415121;28;20092;-75
2023/01/24 15:59:44;;;;;;;131.02;48.35;;;;;;;0.92;100.00;102061.22;10415732;28;20041;-76
2023/01/24 16:04:47;;;;;;;130.88;47.35;;;;;;;0.84;100.00;102064.34;10426432;28;20100;-74
2023/01/24 16:09:49;;;;;;;131.30;44.50;;;;;;;0.75;100.00;102062.25;10407911;28;20073;-73
2023/01/24 16:14:54;;;;;;;132.95;47.55;;;;;;;0.91;100.00;102058.59;10407867;28;20041;-75
2023/01/24 16:20:30;;;;;;;136.68;46.72;;;;;;;0.79;100.00;102058.97;10407829;28;20100;-74
2023/01/24 16:25:35;;;;;;;133.52;46.85;;;;;;;0.75;100.00;102049.31;10423330;28;20477;-75
2023/01/24 16:30:37;;;;;;;130.43;44.78;;;;;;;0.87;100.00;102048.94;10422853;28;20395;-73
2023/01/24 16:35:38;;;;;;;130.73;46.42;;;;;;;0.82;100.00;102043.56;10407440;28;20483;-74
2023/01/24 16:40:41;;;;;;;123.25;45.90;;;;;;;0.80;100.00;102050.41;10406554;28;20509;-74
2023/01/24 16:45:46;;;;;;;134.18;45.88;;;;;;;0.74;100.00;102053.63;10421831;28;20046;-74
2023/01/24 16:50:48;;;;;;;122.07;45.78;;;;;;;1.00;100.00;102043.41;10422582;28;20049;-73
2023/01/24 16:55:57;;;;;;;129.32;47.65;;;;;;;0.98;100.00;102045.06;10424764;28;20038;-75
2023/01/24 17:00:59;;;;;;;130.65;48.83;;;;;;;0.84;100.00;102039.34;10423382;28;20041;-75
2023/01/24 17:06:03;;;;;;;127.10;47.13;;;;;;;0.97;100.00;102031.25;10423002;28;20052;-74
2023/01/24 17:11:08;;;;;;;126.90;45.67;;;;;;;0.81;100.00;102038.34;10402835;28;20045;-74
2023/01/24 17:16:10;;;;;;;121.55;47.25;;;;;;;0.96;100.00;102041.53;10403100;28;20060;-75
2023/01/24 17:21:14;;;;;;;129.27;46.78;;;;;;;0.93;100.00;102046.56;10418300;28;20120;-75
2023/01/24 17:26:16;;;;;;;124.28;45.80;;;;;;;0.82;100.00;102053.94;10419148;28;20487;-73
2023/01/24 17:31:20;;;;;;;115.50;44.85;;;;;;;0.79;100.00;102051.19;10404555;28;20116;-74
2023/01/24 17:36:22;;;;;;;114.60;44.55;;;;;;;0.80;100.00;102053.00;10422992;28;20037;-74
2023/01/24 17:41:23;;;;;;;122.28;44.75;;;;;;;0.69;100.00;102062.03;10422449;28;20093;-76
2023/01/24 17:46:25;;;;;;;112.18;43.42;;;;;;;0.97;100.00;102058.81;10422309;28;20065;-75
2023/01/24 17:51:27;;;;;;;110.40;42.85;;;;;;;0.74;100.00;102063.97;10439999;23;20045;-73
2023/01/24 17:56:29;;;;;;;111.22;43.60;;;;;;;0.89;100.00;102053.38;10506879;28;20378;-74
2023/01/24 18:01:31;;;;;;;99.13;39.90;;;;;;;0.81;100.00;102064.22;10507174;28;20051;-74
2023/01/24 18:06:33;;;;;;;97.50;39.33;;;;;;;0.81;100.00;102059.06;10488005;28;20076;-74
2023/01/24 18:11:36;;;;;;;99.65;39.80;;;;;;;0.92;100.00;102057.75;10505918;28;20094;-73
2023/01/24 18:16:37;;;;;;;96.53;39.53;;;;;;;1.05;100.00;102059.13;10506447;28;20055;-73
2023/01/24 18:21:41;;;;;;;104.45;40.92;;;;;;;1.01;100.00;102058.13;10502368;28;20043;-73
2023/01/24 18:26:42;;;;;;;86.60;38.58;;;;;;;0.84;100.00;102061.75;10503753;28;20051;-73
2023/01/24 18:31:44;;;;;;;96.22;39.60;;;;;;;1.09;100.00;102045.47;10481677;28;20040;-73
2023/01/24 18:36:48;;;;;;;96.13;37.53;;;;;;;1.02;100.00;102052.16;10503731;28;20066;-73
2023/01/24 18:41:49;;;;;;;89.10;38.85;;;;;;;0.90;100.00;102044.75;10499440;28;20036;-74
2023/01/24 18:46:51;;;;;;;88.18;38.30;;;;;;;0.86;100.00;102040.28;10506432;28;20055;-73
2023/01/24 18:51:53;;;;;;;79.93;35.42;;;;;;;0.99;100.00;102042.53;10502238;28;20033;-74
2023/01/24 18:56:55;;;;;;;76.07;34.58;;;;;;;1.12;100.00;102045.63;10481639;28;20456;-73
2023/01/24 19:01:57;;;;;;;82.82;36.30;;;;;;;0.79;100.00;102050.31;10502899;28;20052;-73
2023/01/24 19:07:01;;;;;;;73.05;33.60;;;;;;;1.13;100.00;102052.56;10500362;28;20051;-74
2023/01/24 19:12:03;;;;;;;74.45;33.08;;;;;;;0.97;100.00;102035.53;10501900;28;20041;-74
2023/01/24 19:17:07;;;;;;;71.65;33.00;;;;;;;1.03;100.00;102038.38;10500921;28;20119;-74
2023/01/24 19:22:09;;;;;;;75.35;34.67;;;;;;;0.97;100.00;102036.44;10502074;28;20048;-73
2023/01/24 19:27:11;;;;;;;77.10;33.95;;;;;;;1.10;100.00;102036.88;10500989;28;20451;-74
2023/01/24 19:32:12;;;;;;;79.60;36.22;;;;;;;1.13;100.00;102037.00;10500095;28;20036;-74
2023/01/24 19:37:14;;;;;;;66.68;33.38;;;;;;;0.97;100.00;102026.06;10500306;28;20048;-75
2023/01/24 19:42:16;;;;;;;77.40;33.60;;;;;;;0.84;100.00;102031.59;10502645;28;20090;-74
2023/01/24 19:47:17;;;;;;;83.57;36.25;;;;;;;1.06;100.00;102033.28;10486096;28;20509;-73
2023/01/24 19:52:19;;;;;;;79.43;35.55;;;;;;;0.99;100.00;102037.34;10501136;28;20043;-74
2023/01/24 19:57:22;;;;;;;67.20;33.65;;;;;;;0.93;100.00;102044.91;10503378;28;20045;-74
2023/01/24 20:02:24;;;;;;;74.82;33.95;;;;;;;0.92;100.00;102052.59;10504455;28;20477;-74
2023/01/24 20:07:26;;;;;;;68.97;34.25;;;;;;;0.84;100.00;102052.31;10503241;28;20528;-74
2023/01/24 20:12:28;;;;;;;77.10;36.70;;;;;;;1.13;100.00;102058.59;10502369;28;20043;-74
2023/01/24 20:17:34;;;;;;;73.80;34.13;;;;;;;1.18;100.00;102058.78;10501724;28;20079;-73
2023/01/24 20:22:36;;;;;;;70.43;32.60;;;;;;;1.24;100.00;102062.50;10500135;28;20509;-74
2023/01/24 20:27:38;;;;;;;78.53;34.78;;;;;;;1.13;100.00;102061.19;10501346;28;20036;-74
2023/01/24 20:32:40;;;;;;;64.00;32.67;;;;;;;1.10;100.00;102061.06;10481365;28;20147;-74
2023/01/24 20:37:42;;;;;;;65.45;33.33;;;;;;;0.99;100.00;102058.06;10482345;28;20493;-74
2023/01/24 20:42:43;;;;;;;72.57;33.75;;;;;;;1.13;100.00;102055.16;10483121;28;20044;-74
2023/01/24 20:47:46;;;;;;;66.90;32.78;;;;;;;1.11;100.00;102061.97;10506445;28;20040;-72
2023/01/24 20:52:48;;;;;;;69.93;33.65;;;;;;;1.23;100.00;102052.94;10507179;28;20124;-73
2023/01/24 20:57:49;;;;;;;70.68;33.72;;;;;;;1.28;100.00;102047.94;10508390;28;20049;-72
2023/01/24 21:02:52;;;;;;;59.65;32.05;;;;;;;1.24;100.00;102044.38;10505903;28;20036;-71
2023/01/24 21:07:54;;;;;;;60.83;30.52;;;;;;;1.06;100.00;102045.34;10506371;28;20032;-71
2023/01/24 21:12:56;;;;;;;57.55;30.15;;;;;;;0.91;100.00;102049.13;10508727;28;20490;-72
2023/01/24 21:17:57;;;;;;;65.03;31.25;;;;;;;1.02;100.00;102041.78;10488331;28;20048;-72
2023/01/24 21:22:59;;;;;;;64.13;31.17;;;;;;;1.02;100.00;102044.38;10504653;28;20063;-71
2023/01/24 21:28:01;;;;;;;64.50;30.85;;;;;;;1.07;100.00;102044.56;10505632;28;20052;-70
2023/01/24 21:33:03;;;;;;;64.93;31.80;;;;;;;0.93;100.00;102043.97;10472456;28;20125;-72
2023/01/24 21:38:05;;;;;;;67.90;30.73;;;;;;;1.06;100.00;102042.75;10503499;28;20461;-71
2023/01/24 21:43:07;;;;;;;55.80;30.20;;;;;;;1.15;100.00;102043.13;10485266;28;20044;-70
2023/01/24 21:48:11;;;;;;;59.33;29.92;;;;;;;1.09;100.00;102035.13;10507171;28;20131;-71
2023/01/24 21:54:01;;;;;;;61.05;30.75;;;;;;;0.95;100.00;102043.25;10506120;28;20524;-72
2023/01/24 21:58:35;;;;;;;60.70;30.23;;;;;;;0.92;100.00;102029.28;10504099;28;20040;-72
2023/01/24 22:03:36;;;;;;;66.20;31.38;;;;;;;0.91;100.00;102036.16;10502944;28;20044;-71
2023/01/24 22:08:38;;;;;;;61.15;31.50;;;;;;;0.91;100.00;102035.28;10502587;28;20385;-71
2023/01/24 22:13:40;;;;;;;70.18;31.95;;;;;;;0.82;100.00;102038.41;10487590;28;20405;-71
2023/01/24 22:18:42;;;;;;;75.43;34.03;;;;;;;0.89;100.00;102030.06;10505797;28;20041;-70
2023/01/24 22:24:01;;;;;;;63.00;32.22;;;;;;;0.77;100.00;102024.38;10503508;28;20048;-71
2023/01/24 22:29:03;;;;;;;65.65;32.08;;;;;;;0.74;100.00;102025.13;10502747;28;20040;-70
2023/01/24 22:34:04;;;;;;;76.10;36.80;;;;;;;0.67;100.00;102023.16;10502456;28;20040;-70
2023/01/24 22:39:06;;;;;;;82.90;38.17;;;;;;;0.71;100.00;102016.41;10503207;28;20036;-70
2023/01/24 22:44:08;;;;;;;90.05;39.88;;;;;;;0.79;100.00;101999.44;10484705;28;20105;-71
2023/01/24 22:49:12;;;;;;;86.18;38.40;;;;;;;0.67;100.00;101998.97;10501241;28;20060;-72
2023/01/24 22:54:13;;;;;;;95.85;40.95;;;;;;;0.72;100.00;101992.25;10501528;28;20505;-71
2023/01/24 22:59:16;;;;;;;91.00;38.22;;;;;;;0.63;100.00;101986.72;10503309;28;20041;-70
2023/01/24 23:04:18;;;;;;;95.28;39.35;;;;;;;0.63;100.00;101976.38;10482176;28;20066;-70
2023/01/24 23:09:20;;;;;;;101.80;40.80;;;;;;;0.62;100.00;101979.75;10499289;28;20036;-70
2023/01/24 23:25:05;;;;;;;92.15;39.15;;;;;;;0.70;100.00;101973.19;10501374;28;20071;-70
2023/01/24 23:30:52;;;;;;;88.25;37.95;;;;;;;0.92;100.00;101975.78;10499173;28;20115;-70
2023/01/24 23:35:55;;;;;;;78.67;36.53;;;;;;;0.83;100.00;101967.66;10332775;28;20226;-71
2023/01/24 23:40:57;;;;;;;93.40;39.75;;;;;;;0.76;100.00;101960.50;10330721;28;20058;-71
2023/01/24 23:45:59;;;;;;;96.10;42.28;;;;;;;0.65;100.00;101959.19;10333519;28;20058;-71
2023/01/24 23:51:00;;;;;;;113.13;44.97;;;;;;;0.56;100.00;101948.47;10314285;28;20070;-71